Grimsby, Canada
Current Conditions -  °F | °C
As of 8:00 PM on Sunday 23 Nov 2014 (Local Time) from CYHM Reporting Station
Overcast Overcast  
Wind Chill: 39°   Ceiling: 10000
Heat Index: 45°   Visibility: 15mi
Dew Point: 39°   Wind: 10mph
Humidity: 81%   Direction: 50°NE
Pressure: 29.72"   Gusts: NA
Location:  43.2°N, 79.58°W
Report Text: CYHM 240100Z 05009KT 15SM SCT034 BKN100 OVC150 07/04 A2972 RMK SC3AC2AC3 PRESFR SLP068
Loading
Personal Weather Stations






























Interactive Weather Map New forecast layout! Learn more

10-Day Weather Forecast

Advertisements
Track Severe Weather on mobile